Time;durP1;ratioP1;P1;durP2;ratioP2;P2;SDS_P1;SDS_P2;PMS_P1;PMS_P2;Temp;Humidity;BMP_temperature;BMP_pressure;BME280_temperature;BME280_humidity;BME280_pressure;Samples;Min_cycle;Max_cycle;Signal;HPM_P1;HPM_P2
2021/03/28 00:00:01;;;;;;;9.60;2.88;;;;;;;1.95;83.49;102562.47;5052170;28;20040;-65
2021/03/28 00:02:50;;;;;;;8.38;3.08;;;;;;;1.88;83.55;102566.69;5059559;28;20172;-65
2021/03/28 00:05:22;;;;;;;6.70;3.45;;;;;;;1.87;83.80;102566.84;5074833;28;20035;-67
2021/03/28 00:07:49;;;;;;;9.32;2.95;;;;;;;1.84;83.74;102569.78;5056779;28;20050;-66
2021/03/28 00:10:43;;;;;;;10.13;3.55;;;;;;;1.86;83.61;102567.81;5075041;28;20062;-65
2021/03/28 00:13:20;;;;;;;8.68;3.15;;;;;;;1.82;84.16;102569.91;5073429;28;20522;-66
2021/03/28 00:15:56;;;;;;;4.05;3.05;;;;;;;1.84;84.02;102560.03;5072574;28;20029;-66
2021/03/28 00:18:25;;;;;;;10.88;3.40;;;;;;;1.81;84.58;102570.91;5060751;28;20687;-66
2021/03/28 00:21:07;;;;;;;7.63;3.40;;;;;;;1.70;84.81;102557.88;5072666;28;20069;-67
2021/03/28 00:23:48;;;;;;;10.98;3.08;;;;;;;1.72;84.59;102567.31;5055829;28;20041;-68
2021/03/28 00:26:40;;;;;;;6.38;3.50;;;;;;;1.69;84.71;102562.31;5070865;28;20051;-68
2021/03/28 00:29:24;;;;;;;7.68;3.13;;;;;;;1.76;84.03;102562.56;5076441;28;20035;-67
2021/03/28 00:32:04;;;;;;;8.23;3.20;;;;;;;1.72;84.50;102571.75;5076521;28;20024;-67
2021/03/28 00:34:41;;;;;;;8.82;3.08;;;;;;;1.70;84.47;102566.63;5075499;28;20489;-67
2021/03/28 00:37:07;;;;;;;6.85;3.97;;;;;;;1.73;84.38;102570.78;5076729;28;20032;-67
2021/03/28 00:39:53;;;;;;;7.95;3.67;;;;;;;1.71;84.63;102572.75;5075768;28;20170;-67
2021/03/28 00:42:28;;;;;;;8.48;4.22;;;;;;;1.63;84.83;102568.19;5074935;28;20052;-67
2021/03/28 00:45:15;;;;;;;9.20;3.50;;;;;;;1.64;84.58;102574.31;5074206;28;20035;-67
2021/03/28 00:47:47;;;;;;;6.90;3.53;;;;;;;1.62;84.86;102590.31;5081425;28;20032;-67
2021/03/28 00:50:12;;;;;;;5.90;3.08;;;;;;;1.74;84.44;102585.66;5075650;28;20028;-67
2021/03/28 00:52:54;;;;;;;4.85;3.38;;;;;;;1.72;84.18;102595.53;5076171;28;20027;-67
2021/03/28 00:55:25;;;;;;;9.52;3.45;;;;;;;1.70;84.53;102590.41;5076287;28;20101;-67
2021/03/28 00:58:04;;;;;;;8.90;3.47;;;;;;;1.74;84.78;102598.88;5075655;28;20136;-67
2021/03/28 01:00:36;;;;;;;6.82;3.70;;;;;;;1.71;84.74;102588.59;5071305;28;20478;-67
2021/03/28 01:03:09;;;;;;;7.40;3.75;;;;;;;1.74;84.82;102598.88;5055600;28;20029;-67
2021/03/28 01:05:48;;;;;;;6.93;4.03;;;;;;;1.82;84.24;102596.34;5077178;28;22015;-67
2021/03/28 01:08:40;;;;;;;7.40;2.90;;;;;;;1.75;84.18;102598.72;5079207;28;20029;-67
2021/03/28 01:11:51;;;;;;;8.60;3.58;;;;;;;1.72;84.16;102592.91;5076470;28;20051;-67
2021/03/28 01:14:55;;;;;;;11.20;3.85;;;;;;;1.70;84.09;102602.78;5065028;28;20035;-67
2021/03/28 01:17:48;;;;;;;7.22;4.38;;;;;;;1.54;85.13;102595.47;5027248;28;20044;-67
2021/03/28 01:20:19;;;;;;;7.35;3.97;;;;;;;1.56;84.91;102606.72;5077155;28;20031;-67
2021/03/28 01:23:08;;;;;;;5.35;2.95;;;;;;;1.42;85.30;102601.88;5057858;28;20100;-67
2021/03/28 01:25:49;;;;;;;10.93;3.55;;;;;;;1.42;85.24;102610.63;5068684;28;20613;-67
2021/03/28 01:28:26;;;;;;;8.15;3.38;;;;;;;1.50;84.52;102610.78;5097045;28;20020;-67
2021/03/28 01:30:53;;;;;;;10.25;3.55;;;;;;;1.43;85.76;102614.94;5095705;28;20035;-67
2021/03/28 01:33:28;;;;;;;7.13;3.38;;;;;;;1.39;86.34;102613.56;5093409;28;20028;-67
2021/03/28 01:36:01;;;;;;;;;;;;;;;1.44;86.31;102611.34;5101141;28;20027;-67
2021/03/28 01:38:37;;;;;;;8.70;3.65;;;;;;;1.49;85.81;102617.03;5097869;28;19918;-67
2021/03/28 01:41:07;;;;;;;4.90;3.42;;;;;;;1.52;85.31;102619.38;5080040;28;20393;-67
2021/03/28 01:43:59;;;;;;;10.43;3.80;;;;;;;1.45;85.51;102620.94;5097880;28;20038;-67
2021/03/28 01:46:58;;;;;;;9.88;3.65;;;;;;;1.43;85.37;102624.69;5096868;28;20402;-67
2021/03/28 01:49:47;;;;;;;6.90;3.58;;;;;;;1.40;85.24;102623.16;5096100;28;20096;-67
2021/03/28 01:52:30;;;;;;;6.88;3.33;;;;;;;1.36;86.06;102634.16;5095482;28;20024;-67
2021/03/28 01:54:56;;;;;;;11.68;4.68;;;;;;;1.46;84.92;102635.81;5099295;28;20074;-67
2021/03/28 01:57:43;;;;;;;11.55;3.83;;;;;;;1.44;84.74;102626.38;5096601;28;20459;-67
2021/03/28 02:00:33;;;;;;;6.68;3.10;;;;;;;1.31;85.62;102623.19;5094602;28;20107;-67
2021/03/28 02:03:06;;;;;;;9.25;3.85;;;;;;;1.29;85.13;102633.06;5099248;28;20032;-67
2021/03/28 02:06:07;;;;;;;8.65;4.15;;;;;;;1.13;86.99;102639.75;5090676;28;20122;-67
2021/03/28 02:08:44;;;;;;;8.98;3.78;;;;;;;1.13;86.82;102634.47;5072738;28;20102;-67
2021/03/28 02:11:25;;;;;;;9.60;3.75;;;;;;;1.25;85.83;102637.75;5082369;28;20032;-67
2021/03/28 02:14:08;;;;;;;11.70;4.03;;;;;;;1.15;86.26;102631.69;5090785;28;20543;-67
2021/03/28 02:16:58;;;;;;;14.10;4.30;;;;;;;0.99;87.66;102634.03;5092518;28;20036;-67
2021/03/28 02:19:25;;;;;;;13.95;3.95;;;;;;;1.04;86.95;102630.00;5092319;28;20016;-67
2021/03/28 02:22:01;;;;;;;9.07;4.18;;;;;;;0.95;88.06;102645.84;5095613;28;20028;-67
2021/03/28 02:24:42;;;;;;;11.95;4.82;;;;;;;1.02;88.40;102639.03;5091512;28;20102;-67
2021/03/28 02:27:17;;;;;;;9.35;4.95;;;;;;;1.13;87.12;102642.38;5090424;28;20240;-67
2021/03/28 02:30:04;;;;;;;8.18;4.00;;;;;;;1.13;86.52;102638.91;5088643;28;20046;-67
2021/03/28 02:32:49;;;;;;;10.90;4.53;;;;;;;1.09;87.61;102642.81;5087686;28;20024;-67
2021/03/28 02:35:46;;;;;;;9.18;4.32;;;;;;;1.13;88.19;102633.63;5094391;27;20058;-67
2021/03/28 02:38:32;;;;;;;11.23;4.68;;;;;;;1.20;87.80;102645.28;5088224;28;20112;-67
2021/03/28 02:41:35;;;;;;;11.57;4.70;;;;;;;1.23;87.24;102646.81;5070598;28;20028;-67
2021/03/28 02:44:21;;;;;;;9.85;4.43;;;;;;;1.09;88.39;102653.38;5093701;28;20532;-67
2021/03/28 02:46:51;;;;;;;9.63;5.45;;;;;;;1.16;87.57;102641.25;5091538;28;20514;-67
2021/03/28 02:49:17;;;;;;;9.63;5.07;;;;;;;1.10;88.30;102647.94;5080354;28;20445;-67
2021/03/28 02:52:18;;;;;;;14.70;4.93;;;;;;;1.08;88.98;102655.19;5079806;28;20031;-67
2021/03/28 02:55:14;;;;;;;10.93;5.10;;;;;;;0.99;88.50;102650.72;5074927;28;20502;-67
2021/03/28 02:58:01;;;;;;;10.73;5.63;;;;;;;1.02;89.28;102646.97;5092937;28;20028;-67
2021/03/28 03:00:42;;;;;;;8.90;5.45;;;;;;;1.02;89.09;102658.34;5091781;28;20087;-67
2021/03/28 03:03:35;;;;;;;12.32;4.65;;;;;;;1.12;87.55;102647.81;5090608;28;20056;-67
2021/03/28 03:06:20;;;;;;;12.20;5.22;;;;;;;1.10;87.15;102655.03;5086663;28;20032;-67
2021/03/28 03:09:00;;;;;;;12.98;5.35;;;;;;;1.06;86.90;102658.91;5095728;27;20742;-67
2021/03/28 03:11:48;;;;;;;11.52;5.75;;;;;;;0.90;88.10;102665.59;5078545;28;20019;-67
2021/03/28 03:14:35;;;;;;;16.58;5.22;;;;;;;0.99;87.11;102666.56;5087798;28;20027;-67
2021/03/28 03:17:36;;;;;;;13.57;6.88;;;;;;;0.77;89.05;102667.66;5093084;27;20027;-67
2021/03/28 03:20:22;;;;;;;13.10;4.97;;;;;;;0.93;87.78;102663.63;5093425;28;20053;-67
2021/03/28 03:22:50;;;;;;;11.45;5.50;;;;;;;0.84;88.74;102673.19;5099388;27;20035;-67
2021/03/28 03:25:42;;;;;;;11.32;6.07;;;;;;;0.84;88.42;102667.91;5097535;28;20473;-67
2021/03/28 03:28:26;;;;;;;12.32;5.63;;;;;;;0.89;87.98;102673.63;5098445;27;20547;-67
2021/03/28 03:30:54;;;;;;;11.52;5.68;;;;;;;0.97;87.22;102692.25;5082912;28;20031;-67
2021/03/28 03:33:44;;;;;;;15.45;5.50;;;;;;;0.96;87.44;102690.59;5095323;28;20024;-67
2021/03/28 03:36:47;;;;;;;14.57;5.50;;;;;;;0.96;87.52;102685.31;5098154;27;20024;-67
2021/03/28 03:39:29;;;;;;;12.95;6.25;;;;;;;0.92;88.19;102701.56;5092775;28;20031;-67
2021/03/28 03:42:26;;;;;;;15.75;6.05;;;;;;;0.89;88.24;102694.72;5098115;27;20107;-67
2021/03/28 03:45:29;;;;;;;14.02;6.68;;;;;;;0.88;88.47;102698.34;5053136;28;20043;-67
2021/03/28 03:48:10;;;;;;;17.25;6.75;;;;;;;0.86;88.21;102695.00;5097747;27;20090;-67
2021/03/28 03:50:57;;;;;;;17.00;5.85;;;;;;;0.91;87.60;102703.38;5093959;28;20809;-67
2021/03/28 03:53:28;;;;;;;16.95;6.43;;;;;;;0.85;88.19;102702.09;5096424;28;20106;-67
2021/03/28 03:56:06;;;;;;;16.00;6.05;;;;;;;0.87;88.08;102712.50;5096787;28;20502;-67
2021/03/28 03:58:49;;;;;;;13.43;6.60;;;;;;;0.84;88.06;102713.63;5098644;27;20397;-67
2021/03/28 04:01:21;;;;;;;20.67;6.95;;;;;;;0.81;88.03;102713.88;5095898;28;20027;-67
2021/03/28 04:04:07;;;;;;;19.25;6.32;;;;;;;0.83;87.79;102711.94;5094748;28;20039;-67
2021/03/28 04:06:41;;;;;;;13.93;6.00;;;;;;;0.72;88.43;102708.56;5093452;28;20027;-67
2021/03/28 04:09:22;;;;;;;17.15;6.30;;;;;;;0.71;88.62;102715.66;5100941;27;20035;-67
2021/03/28 04:12:30;;;;;;;15.00;6.22;;;;;;;0.63;89.09;102709.41;5097707;27;20119;-67
2021/03/28 04:15:23;;;;;;;18.70;6.53;;;;;;;0.62;88.64;102721.75;5094223;28;20024;-67
2021/03/28 04:18:00;;;;;;;12.40;6.95;;;;;;;0.69;88.25;102720.25;5094873;28;20095;-67
2021/03/28 04:20:25;;;;;;;9.80;5.68;;;;;;;0.59;88.61;102720.22;5093997;28;20087;-67
2021/03/28 04:22:57;;;;;;;14.52;6.47;;;;;;;0.66;88.44;102715.25;5076442;28;20032;-68
2021/03/28 04:25:42;;;;;;;19.35;7.32;;;;;;;0.46;89.28;102718.78;5096293;28;20076;-67
2021/03/28 04:28:41;;;;;;;13.35;5.93;;;;;;;0.25;89.38;102735.50;5092341;28;20028;-67
2021/03/28 04:31:28;;;;;;;18.10;5.80;;;;;;;0.31;89.03;102731.50;5091886;28;20034;-67
2021/03/28 04:34:14;;;;;;;18.30;6.30;;;;;;;0.19;89.77;102727.31;5105527;27;20027;-67
2021/03/28 04:37:14;;;;;;;16.13;6.50;;;;;;;0.16;88.66;102727.53;5075360;28;20098;-67
2021/03/28 04:40:30;;;;;;;17.40;7.43;;;;;;;0.12;88.31;102723.50;5091755;28;20084;-67
2021/03/28 04:43:14;;;;;;;20.75;7.82;;;;;;;0.04;88.35;102728.59;5096143;27;20028;-67
2021/03/28 04:46:04;;;;;;;15.75;7.10;;;;;;;-0.07;89.21;102727.69;5092657;28;20028;-67
2021/03/28 04:49:06;;;;;;;18.75;6.78;;;;;;;-0.13;89.58;102732.66;5094631;28;20020;-67
2021/03/28 04:52:04;;;;;;;18.05;6.82;;;;;;;-0.18;89.42;102734.84;5095448;28;20106;-67
2021/03/28 04:54:41;;;;;;;21.27;6.65;;;;;;;-0.14;89.01;102733.63;5079848;27;20028;-67
2021/03/28 04:57:26;;;;;;;16.73;6.93;;;;;;;-0.06;88.54;102739.91;5100635;27;20124;-67
2021/03/28 05:00:33;;;;;;;18.58;6.72;;;;;;;-0.06;88.34;102736.44;5094367;28;20053;-67
2021/03/28 05:03:07;;;;;;;20.20;8.15;;;;;;;-0.18;90.65;102745.38;5093610;28;20024;-67
2021/03/28 05:05:48;;;;;;;14.88;7.20;;;;;;;-0.22;91.73;102749.22;5095192;27;20023;-67
2021/03/28 05:08:33;;;;;;;19.80;6.78;;;;;;;-0.31;92.66;102743.78;5095332;27;20031;-67
2021/03/28 05:11:07;;;;;;;15.77;6.30;;;;;;;-0.25;92.55;102745.06;5098027;27;20020;-67
2021/03/28 05:14:03;;;;;;;26.60;7.22;;;;;;;-0.27;93.01;102748.78;5095041;28;20030;-67
2021/03/28 05:16:40;;;;;;;23.08;6.90;;;;;;;-0.22;92.87;102750.06;5097830;27;20027;-67
2021/03/28 05:19:24;;;;;;;19.83;6.10;;;;;;;-0.19;92.18;102748.97;5078735;28;20544;-67
2021/03/28 05:21:58;;;;;;;17.88;6.32;;;;;;;0.01;91.74;102748.16;5092344;27;20035;-67
2021/03/28 05:24:54;;;;;;;13.07;5.35;;;;;;;0.09;91.61;102752.75;5098079;27;20034;-67
2021/03/28 05:28:13;;;;;;;15.43;5.85;;;;;;;-0.05;91.72;102749.47;5097624;27;20587;-67
2021/03/28 05:31:16;;;;;;;19.45;6.57;;;;;;;0.10;91.32;102750.00;5041593;28;20082;-67
2021/03/28 05:34:09;;;;;;;18.40;5.80;;;;;;;0.26;90.49;102760.06;5040013;28;20040;-67
2021/03/28 05:36:40;;;;;;;13.35;5.88;;;;;;;0.39;89.81;102765.13;5096654;28;20041;-67
2021/03/28 05:39:51;;;;;;;19.77;6.25;;;;;;;0.43;90.16;102750.72;5087107;27;20019;-67
2021/03/28 05:42:48;;;;;;;20.25;6.63;;;;;;;0.55;89.62;102757.56;5098796;27;20019;-67
2021/03/28 05:45:47;;;;;;;16.63;6.43;;;;;;;0.60;89.50;102744.81;5092457;27;20073;-67
2021/03/28 05:48:19;;;;;;;18.02;6.30;;;;;;;0.66;89.79;102756.63;5093595;28;20070;-67
2021/03/28 05:51:02;;;;;;;18.77;6.82;;;;;;;0.69;89.34;102757.19;5095678;27;20028;-67
2021/03/28 05:54:01;;;;;;;16.30;5.97;;;;;;;0.86;88.39;102761.81;5092900;27;20036;-67
2021/03/28 05:56:47;;;;;;;13.77;5.53;;;;;;;0.95;88.03;102754.06;5091534;27;20026;-66
2021/03/28 05:59:48;;;;;;;12.80;5.05;;;;;;;1.24;86.36;102752.28;5091865;28;21909;-67
2021/03/28 06:02:52;;;;;;;10.38;5.28;;;;;;;1.38;85.67;102757.16;5056078;27;20044;-67
2021/03/28 06:05:30;;;;;;;15.85;5.35;;;;;;;2.00;83.30;102753.22;5092456;27;20055;-67
2021/03/28 06:08:17;;;;;;;17.33;5.57;;;;;;;2.72;80.37;102749.06;5089700;27;20028;-67
2021/03/28 06:10:46;;;;;;;12.55;5.20;;;;;;;3.56;77.23;102756.69;5088406;27;20664;-67
2021/03/28 06:13:44;;;;;;;24.80;6.82;;;;;;;3.63;76.10;102747.16;5093523;27;20482;-67
2021/03/28 06:16:21;;;;;;;16.95;5.47;;;;;;;3.51;77.48;102756.31;5094554;27;20043;-67
2021/03/28 06:18:56;;;;;;;16.95;6.05;;;;;;;3.64;77.12;102752.31;5077567;28;20037;-67
2021/03/28 06:21:50;;;;;;;13.20;5.07;;;;;;;3.33;78.09;102751.84;5089076;27;20050;-67
2021/03/28 06:24:21;;;;;;;10.48;4.70;;;;;;;3.18;78.45;102752.53;5096911;27;20107;-67
2021/03/28 06:27:23;;;;;;;17.38;4.88;;;;;;;2.95;79.15;102747.66;5091294;28;20550;-67
2021/03/28 06:30:10;;;;;;;10.25;4.80;;;;;;;3.03;79.18;102760.16;5087665;27;20055;-67
2021/03/28 06:33:22;;;;;;;14.88;6.03;;;;;;;3.02;78.80;102758.50;5090542;28;20424;-67
2021/03/28 06:36:25;;;;;;;11.32;4.95;;;;;;;3.05;78.74;102752.88;5079032;28;20135;-67
2021/03/28 06:39:06;;;;;;;18.08;5.65;;;;;;;3.14;78.42;102759.94;5094837;28;20123;-67
2021/03/28 06:42:12;;;;;;;12.35;5.00;;;;;;;3.17;78.17;102754.34;5092875;28;20102;-67
2021/03/28 06:44:59;;;;;;;14.63;4.90;;;;;;;3.49;77.21;102755.66;5093422;28;20575;-67
2021/03/28 06:47:59;;;;;;;13.52;4.60;;;;;;;3.69;76.58;102751.84;5079577;28;20612;-68
2021/03/28 06:50:40;;;;;;;16.33;4.75;;;;;;;4.00;75.44;102754.06;5089187;28;20080;-68
2021/03/28 06:53:37;;;;;;;12.57;4.82;;;;;;;4.13;74.48;102749.16;5096711;28;20027;-66
2021/03/28 06:56:36;;;;;;;11.48;4.22;;;;;;;4.29;74.50;102749.25;5088630;28;20028;-66
2021/03/28 06:59:28;;;;;;;13.32;4.70;;;;;;;4.11;74.60;102753.78;5088797;28;20101;-66
2021/03/28 07:02:11;;;;;;;10.68;4.13;;;;;;;4.28;74.40;102765.31;5085754;28;20030;-66
2021/03/28 07:05:16;;;;;;;12.88;4.82;;;;;;;4.04;73.80;102766.84;5088811;28;21692;-66
2021/03/28 07:08:19;;;;;;;11.38;5.50;;;;;;;4.36;73.60;102760.91;5082066;28;20088;-66
2021/03/28 07:11:12;;;;;;;10.70;3.70;;;;;;;4.38;72.61;102758.94;5093320;28;20030;-66
2021/03/28 07:13:42;;;;;;;12.43;3.97;;;;;;;4.56;72.41;102756.19;5086103;28;20019;-66
2021/03/28 07:16:49;;;;;;;9.70;3.67;;;;;;;4.55;72.62;102751.88;5087755;28;20032;-66
2021/03/28 07:19:24;;;;;;;12.50;5.25;;;;;;;4.48;72.83;102754.31;5031186;28;20021;-66
2021/03/28 07:22:08;;;;;;;12.13;4.40;;;;;;;4.59;72.40;102749.72;5067032;28;20578;-66
2021/03/28 07:24:33;;;;;;;16.65;4.88;;;;;;;4.81;72.11;102749.13;5084538;28;20414;-66
2021/03/28 07:27:17;;;;;;;9.95;4.22;;;;;;;4.80;71.10;102747.47;5092192;28;20082;-66
2021/03/28 07:30:01;;;;;;;8.35;3.95;;;;;;;4.83;70.77;102752.47;5085028;28;20035;-66
2021/03/28 07:32:32;;;;;;;13.65;4.20;;;;;;;5.00;70.82;102748.88;5085035;28;20398;-66
2021/03/28 07:35:37;;;;;;;13.88;4.07;;;;;;;5.28;69.57;102753.91;5089175;28;20027;-66
2021/03/28 07:38:08;;;;;;;15.23;4.55;;;;;;;5.36;69.72;102760.06;5089136;28;20517;-66
2021/03/28 07:41:00;;;;;;;11.38;4.30;;;;;;;5.46;69.25;102759.91;5084777;28;20038;-66
2021/03/28 07:43:56;;;;;;;17.02;3.88;;;;;;;5.53;68.49;102752.94;5089122;28;20028;-66
2021/03/28 07:46:31;;;;;;;;;;;;;;;5.55;68.17;102758.91;5088194;28;21235;-66
2021/03/28 07:49:29;;;;;;;12.02;3.97;;;;;;;5.74;66.96;102755.94;5082186;28;19923;-66
2021/03/28 07:52:25;;;;;;;11.82;4.40;;;;;;;5.90;67.18;102770.25;5084410;28;20121;-66
2021/03/28 07:55:25;;;;;;;11.00;4.40;;;;;;;6.02;66.62;102772.41;5092266;28;20031;-66
2021/03/28 07:58:00;;;;;;;11.43;3.65;;;;;;;6.22;66.71;102775.50;5086461;28;20458;-66
2021/03/28 08:00:50;;;;;;;12.73;4.82;;;;;;;6.18;65.98;102789.34;5092515;27;20034;-66
2021/03/28 08:03:46;;;;;;;10.98;3.28;;;;;;;6.14;65.80;102780.88;5088274;28;20027;-67
2021/03/28 08:06:56;;;;;;;7.90;3.28;;;;;;;6.30;65.19;102780.84;5079470;28;20059;-68
2021/03/28 08:09:34;;;;;;;11.32;4.25;;;;;;;6.03;64.46;102773.22;5083003;22;20052;-80
2021/03/28 08:12:25;;;;;;;13.77;4.97;;;;;;;6.19;64.41;102767.88;5038608;28;20852;-81
2021/03/28 08:15:19;;;;;;;14.50;3.88;;;;;;;6.21;64.35;102773.03;5061422;28;20025;-81
2021/03/28 08:18:13;;;;;;;12.98;3.70;;;;;;;6.45;63.78;102780.13;5053114;28;20121;-82
2021/03/28 08:21:05;;;;;;;10.85;3.97;;;;;;;6.59;63.02;102772.25;5026811;28;20017;-81
2021/03/28 08:23:42;;;;;;;7.60;3.15;;;;;;;6.55;61.82;102770.09;5030081;28;20029;-80
2021/03/28 08:26:21;;;;;;;6.72;3.15;;;;;;;6.63;62.94;102775.38;5044274;28;20028;-81
2021/03/28 08:29:11;;;;;;;9.80;3.40;;;;;;;6.96;61.94;102782.25;5041510;28;20033;-82
2021/03/28 08:31:54;;;;;;;13.05;4.03;;;;;;;7.03;61.35;102784.22;5031692;28;20403;-82
2021/03/28 08:34:38;;;;;;;8.75;3.08;;;;;;;7.11;61.07;102785.00;5051196;28;20044;-82
2021/03/28 08:37:21;;;;;;;10.00;3.58;;;;;;;7.29;60.58;102782.06;5041861;28;20039;-81
2021/03/28 08:40:18;;;;;;;7.13;2.60;;;;;;;7.26;59.84;102785.91;5039343;28;20509;-82
2021/03/28 08:43:02;;;;;;;10.70;3.67;;;;;;;7.45;59.96;102783.78;5036576;28;20398;-82
2021/03/28 08:45:51;;;;;;;10.77;3.20;;;;;;;7.56;60.51;102778.88;5040560;28;20032;-82
2021/03/28 08:48:54;;;;;;;10.55;3.08;;;;;;;7.37;59.96;102779.34;5009136;28;20041;-82
2021/03/28 08:51:31;;;;;;;7.85;3.63;;;;;;;7.55;59.24;102781.72;5042876;28;20040;-81
2021/03/28 08:54:17;;;;;;;11.48;3.60;;;;;;;7.72;59.42;102777.91;5031026;28;20029;-81
2021/03/28 08:57:32;;;;;;;6.18;2.85;;;;;;;7.99;57.80;102789.84;5043652;28;20643;-81
2021/03/28 09:00:19;;;;;;;11.23;3.45;;;;;;;7.85;58.18;102783.47;4951437;28;20034;-81
2021/03/28 09:03:07;;;;;;;10.82;3.45;;;;;;;8.38;56.51;102778.97;5032579;28;20051;-81
2021/03/28 09:05:43;;;;;;;11.48;4.75;;;;;;;8.59;56.52;102782.72;5033189;28;20028;-82
2021/03/28 09:08:33;;;;;;;8.82;4.00;;;;;;;8.47;55.87;102785.88;5047322;28;20048;-81
2021/03/28 09:11:24;;;;;;;10.60;3.38;;;;;;;8.30;55.82;102786.22;5043914;28;20033;-81
2021/03/28 09:13:50;;;;;;;12.82;3.97;;;;;;;8.50;55.47;102787.34;5027988;28;20102;-81
2021/03/28 09:16:37;;;;;;;12.88;3.28;;;;;;;8.50;54.94;102789.19;5047010;28;20037;-81
2021/03/28 09:19:50;;;;;;;13.80;3.17;;;;;;;8.46;54.69;102786.06;5026786;28;20087;-81
2021/03/28 09:22:28;;;;;;;8.45;3.22;;;;;;;8.56;53.60;102775.09;4984013;28;20068;-81
2021/03/28 09:24:57;;;;;;;8.73;2.33;;;;;;;8.74;53.58;102770.19;4983496;28;20492;-81
2021/03/28 09:27:59;;;;;;;10.75;3.38;;;;;;;8.84;52.65;102777.94;5014315;28;20036;-81
2021/03/28 09:30:33;;;;;;;13.52;3.40;;;;;;;8.77;52.19;102765.28;5045606;28;20025;-81
2021/03/28 09:33:36;;;;;;;9.98;3.17;;;;;;;8.87;51.54;102767.69;5044776;28;20024;-81
2021/03/28 09:36:29;;;;;;;10.52;3.33;;;;;;;9.15;52.40;102753.59;5030952;28;20115;-81
2021/03/28 09:39:17;;;;;;;12.60;3.10;;;;;;;9.20;51.51;102746.69;5031798;28;20025;-80
2021/03/28 09:42:01;;;;;;;9.15;2.60;;;;;;;8.98;51.18;102742.31;5028869;28;20040;-81
2021/03/28 09:44:49;;;;;;;10.73;2.88;;;;;;;9.07;51.65;102750.03;5031036;28;20107;-81
2021/03/28 09:47:33;;;;;;;11.10;2.75;;;;;;;9.34;51.28;102751.16;5030798;28;20028;-80
2021/03/28 09:50:20;;;;;;;9.68;2.70;;;;;;;9.47;50.65;102741.56;5041700;28;20599;-83
2021/03/28 09:53:37;;;;;;;7.53;2.97;;;;;;;9.85;50.24;102732.19;5046480;28;20471;-81
2021/03/28 09:56:20;;;;;;;;;;;;;;;9.88;49.80;102731.00;4966355;28;20813;-81
2021/03/28 09:59:03;;;;;;;13.48;2.83;;;;;;;9.74;48.30;102732.75;5026401;28;19917;-81
2021/03/28 10:01:56;;;;;;;10.38;3.72;;;;;;;9.49;49.15;102728.81;5047577;28;20033;-81
2021/03/28 10:05:13;;;;;;;13.27;3.05;;;;;;;9.74;49.61;102727.41;5043592;28;20616;-81
2021/03/28 10:08:08;;;;;;;5.35;2.50;;;;;;;9.60;48.42;102728.31;5016600;28;20577;-81
2021/03/28 10:10:37;;;;;;;15.98;4.30;;;;;;;10.23;48.13;102730.03;5016023;28;20101;-81
2021/03/28 10:13:40;;;;;;;9.65;2.85;;;;;;;10.31;48.54;102745.13;5044071;28;20041;-82
2021/03/28 10:16:17;;;;;;;9.85;2.95;;;;;;;10.06;48.85;102738.56;5029057;28;20033;-89
2021/03/28 10:19:12;;;;;;;15.98;3.53;;;;;;;10.16;48.58;102734.47;5046302;28;20071;-85
2021/03/28 10:21:37;;;;;;;7.70;2.60;;;;;;;10.56;47.29;102732.88;5046932;28;20533;-84
2021/03/28 10:24:18;;;;;;;10.68;3.03;;;;;;;10.80;48.05;102730.72;5042200;28;20033;-84
2021/03/28 10:27:14;;;;;;;8.70;2.75;;;;;;;11.04;47.50;102729.31;5028869;28;20040;-91
2021/03/28 10:29:53;;;;;;;7.82;2.15;;;;;;;10.72;47.36;102730.88;5044469;28;20043;-84
2021/03/28 10:32:25;;;;;;;9.75;3.65;;;;;;;10.90;48.12;102728.47;5027506;28;20021;-86
2021/03/28 10:35:11;;;;;;;11.90;3.05;;;;;;;10.68;47.50;102729.63;5047165;28;20044;-86
2021/03/28 10:38:17;;;;;;;8.93;2.83;;;;;;;10.70;46.30;102724.88;5002206;28;20037;-75
2021/03/28 10:41:01;;;;;;;;;;;;;;;10.55;47.20;102719.66;5042982;28;20079;-84
2021/03/28 10:43:54;;;;;;;8.98;3.08;;;;;;;10.75;45.97;102715.19;5038355;28;20536;-84
2021/03/28 10:46:32;;;;;;;5.63;2.63;;;;;;;10.49;45.86;102723.16;5028765;28;20124;-83
2021/03/28 10:49:41;;;;;;;6.13;2.83;;;;;;;11.01;46.33;102717.16;5037554;28;20773;-83
2021/03/28 10:52:25;;;;;;;6.07;2.00;;;;;;;10.41;47.06;102717.94;5043991;28;20078;-83
2021/03/28 10:55:15;;;;;;;10.20;3.30;;;;;;;10.28;48.19;102710.69;5045046;28;20136;-83
2021/03/28 10:57:59;;;;;;;10.40;3.42;;;;;;;10.32;47.34;102714.63;5026145;28;20114;-83
2021/03/28 11:01:02;;;;;;;11.13;3.85;;;;;;;10.12;48.55;102709.13;5040857;28;20049;-82
2021/03/28 11:03:48;;;;;;;9.35;3.00;;;;;;;10.40;47.52;102711.75;5026069;28;20082;-83
2021/03/28 11:06:38;;;;;;;11.60;3.35;;;;;;;10.80;45.92;102711.94;5022158;28;20029;-83
2021/03/28 11:09:22;;;;;;;12.90;3.40;;;;;;;11.03;45.55;102708.91;5021048;28;20033;-84
2021/03/28 11:11:48;;;;;;;10.70;3.55;;;;;;;11.54;45.13;102702.97;5023133;28;20031;-84
2021/03/28 11:14:40;;;;;;;14.90;3.67;;;;;;;11.79;43.79;102696.78;5023059;28;20036;-84
2021/03/28 11:17:41;;;;;;;8.63;2.72;;;;;;;11.67;44.79;102697.56;5006387;28;20585;-83
2021/03/28 11:20:28;;;;;;;7.32;3.20;;;;;;;11.64;44.47;102693.44;5003402;28;20479;-84
2021/03/28 11:23:32;;;;;;;4.85;2.05;;;;;;;11.58;44.06;102688.91;5005829;28;20125;-83
2021/03/28 11:25:58;;;;;;;8.95;2.90;;;;;;;11.97;43.68;102688.06;5007490;28;20025;-83
2021/03/28 11:28:29;;;;;;;11.85;3.53;;;;;;;11.70;43.47;102694.50;5011535;28;20086;-84
2021/03/28 11:31:31;;;;;;;10.88;2.97;;;;;;;12.07;42.97;102687.66;5026592;28;20036;-85
2021/03/28 11:34:13;;;;;;;7.35;2.28;;;;;;;11.88;42.55;102681.28;5027882;28;20592;-83
2021/03/28 11:37:05;;;;;;;9.50;3.33;;;;;;;11.73;43.02;102683.34;5024963;28;20083;-84
2021/03/28 11:39:55;;;;;;;7.32;2.63;;;;;;;11.74;43.01;102691.19;5010580;28;20459;-83
2021/03/28 11:42:24;;;;;;;7.65;3.10;;;;;;;11.96;42.89;102690.97;5021862;28;20034;-83
2021/03/28 11:45:04;;;;;;;10.57;3.45;;;;;;;12.28;42.45;102682.00;5029247;28;20048;-84
2021/03/28 11:47:51;;;;;;;6.20;2.97;;;;;;;12.11;41.58;102691.56;5012322;28;20294;-84
2021/03/28 11:50:17;;;;;;;8.48;3.92;;;;;;;12.39;42.40;102694.78;5011146;28;20026;-84
2021/03/28 11:52:58;;;;;;;8.82;3.13;;;;;;;12.73;41.16;102681.97;5009055;28;20395;-84
2021/03/28 11:55:45;;;;;;;10.13;2.70;;;;;;;13.15;39.27;102674.28;5010338;28;20069;-84
2021/03/28 11:58:17;;;;;;;9.68;3.13;;;;;;;13.27;39.80;102683.31;5014958;28;20036;-85
2021/03/28 12:00:56;;;;;;;10.27;2.70;;;;;;;12.51;40.75;102676.09;5022434;28;20124;-84
2021/03/28 12:03:22;;;;;;;6.95;2.95;;;;;;;12.27;42.54;102669.59;5009905;28;20029;-83
2021/03/28 12:06:19;;;;;;;7.55;2.50;;;;;;;12.43;41.92;102670.16;5014691;28;20126;-85
2021/03/28 12:08:46;;;;;;;9.48;2.78;;;;;;;12.89;40.11;102668.03;5017534;28;20032;-84
2021/03/28 12:11:45;;;;;;;9.88;2.70;;;;;;;13.27;39.19;102661.78;5021186;28;20037;-85
2021/03/28 12:14:13;;;;;;;9.55;2.50;;;;;;;13.79;37.89;102655.09;5014673;28;20095;-84
2021/03/28 12:17:10;;;;;;;4.47;2.17;;;;;;;14.32;37.06;102649.09;5027962;28;20052;-84
2021/03/28 12:19:39;;;;;;;7.82;2.92;;;;;;;17.26;32.92;102643.28;5012488;28;20021;-83
2021/03/28 12:22:32;;;;;;;8.27;2.45;;;;;;;16.73;32.58;102635.59;5030970;28;20025;-84
2021/03/28 12:25:03;;;;;;;8.93;3.00;;;;;;;15.90;34.28;102631.50;5013968;28;20040;-84
2021/03/28 12:27:40;;;;;;;5.75;2.28;;;;;;;15.35;33.78;102627.25;5013406;28;20116;-85
2021/03/28 12:30:30;;;;;;;13.40;2.50;;;;;;;15.78;34.29;102623.38;5012089;28;20493;-85
2021/03/28 12:33:04;;;;;;;8.32;3.17;;;;;;;16.81;32.42;102618.94;5007034;28;20545;-85
2021/03/28 12:35:33;;;;;;;7.50;1.85;;;;;;;15.34;32.74;102617.53;5019439;28;20033;-85
2021/03/28 12:38:19;;;;;;;9.20;2.65;;;;;;;14.90;33.48;102612.63;5014049;28;20025;-85
2021/03/28 12:40:46;;;;;;;8.23;2.05;;;;;;;15.01;34.79;102606.44;5032103;28;20550;-85
2021/03/28 12:43:32;;;;;;;9.27;2.80;;;;;;;14.39;35.84;102612.13;5009412;28;20037;-85
2021/03/28 12:45:58;;;;;;;11.00;2.63;;;;;;;14.49;35.70;102606.19;5016135;28;20044;-85
2021/03/28 12:48:34;;;;;;;7.97;2.30;;;;;;;14.10;36.61;102605.63;5028344;28;20037;-85
2021/03/28 12:51:01;;;;;;;7.50;2.67;;;;;;;14.38;35.44;102602.38;5015047;28;20033;-84